Time;durP1;ratioP1;P1;durP2;ratioP2;P2;SDS_P1;SDS_P2;PMS_P1;PMS_P2;Temp;Humidity;BMP_temperature;BMP_pressure;BME280_temperature;BME280_humidity;BME280_pressure;Samples;Min_cycle;Max_cycle;Signal;HPM_P1;HPM_P2
2022/06/09 00:01:21;;;;;;;15.68;3.30;;;15.70;99.90;;;;;;4167001;28;20183;-90
2022/06/09 00:03:35;;;;;;;22.70;2.92;;;15.60;99.90;;;;;;4167044;28;20168;-91
2022/06/09 00:05:37;;;;;;;24.83;3.17;;;15.50;99.90;;;;;;4166876;28;20208;-90
2022/06/09 00:07:38;;;;;;;20.30;2.88;;;15.60;99.90;;;;;;4166954;28;20196;-90
2022/06/09 00:09:44;;;;;;;17.23;2.53;;;15.60;99.90;;;;;;4166771;28;20192;-90
2022/06/09 00:11:48;;;;;;;21.40;3.00;;;15.70;99.90;;;;;;4166968;28;20592;-89
2022/06/09 00:13:49;;;;;;;20.02;2.35;;;15.70;99.90;;;;;;4166826;28;20187;-90
2022/06/09 00:15:50;;;;;;;19.27;2.97;;;15.60;99.90;;;;;;4166977;28;20173;-89
2022/06/09 00:17:51;;;;;;;20.33;2.60;;;15.70;99.90;;;;;;4166676;28;20196;-91
2022/06/09 00:19:52;;;;;;;17.80;3.08;;;15.70;99.90;;;;;;4182180;28;20210;-91
2022/06/09 00:21:53;;;;;;;19.05;2.78;;;15.70;99.90;;;;;;4166785;28;20171;-90
2022/06/09 00:23:53;;;;;;;19.75;2.30;;;15.70;99.90;;;;;;4183002;28;20171;-90
2022/06/09 00:25:54;;;;;;;24.15;2.58;;;15.60;99.90;;;;;;4166714;28;20599;-90
2022/06/09 00:27:55;;;;;;;20.17;2.60;;;15.60;99.90;;;;;;4183087;28;20183;-91
2022/06/09 00:29:55;;;;;;;23.42;3.70;;;15.60;99.90;;;;;;4166638;28;20679;-92
2022/06/09 00:31:56;;;;;;;19.90;2.97;;;15.50;99.90;;;;;;4183230;28;20178;-91
2022/06/09 00:33:57;;;;;;;26.20;2.88;;;15.60;99.90;;;;;;4166516;28;20300;-91
2022/06/09 00:35:58;;;;;;;21.45;2.72;;;15.60;99.90;;;;;;4183152;28;20364;-90
2022/06/09 00:37:58;;;;;;;19.05;2.42;;;15.50;99.90;;;;;;4166512;28;20196;-91
2022/06/09 00:39:59;;;;;;;17.92;2.90;;;15.50;99.90;;;;;;4182946;28;20179;-91
2022/06/09 00:42:01;;;;;;;17.05;2.70;;;15.50;99.90;;;;;;4166234;28;20164;-91
2022/06/09 00:44:15;;;;;;;20.73;2.63;;;15.50;99.90;;;;;;4166240;28;20179;-92
2022/06/09 00:46:25;;;;;;;19.63;2.70;;;15.60;99.90;;;;;;4166425;28;20254;-90
2022/06/09 00:48:36;;;;;;;14.63;2.63;;;15.60;99.90;;;;;;4166249;28;20319;-90
2022/06/09 00:50:40;;;;;;;18.50;2.70;;;15.50;99.90;;;;;;4166507;28;20187;-90
2022/06/09 00:52:46;;;;;;;20.60;2.97;;;15.40;99.90;;;;;;4166481;28;20180;-91
2022/06/09 00:54:51;;;;;;;21.45;2.90;;;15.20;99.90;;;;;;4166305;28;20658;-91
2022/06/09 00:57:04;;;;;;;26.35;2.78;;;15.10;99.90;;;;;;4166288;28;20271;-90
2022/06/09 00:59:06;;;;;;;25.45;2.95;;;15.20;99.90;;;;;;4166062;28;20200;-91
2022/06/09 01:01:10;;;;;;;21.55;3.05;;;15.00;99.90;;;;;;4166271;28;20184;-90
2022/06/09 01:03:12;;;;;;;15.30;2.35;;;14.90;99.90;;;;;;4182594;28;20605;-91
2022/06/09 01:05:16;;;;;;;16.23;2.42;;;14.90;99.90;;;;;;4165961;28;20691;-91
2022/06/09 01:07:28;;;;;;;22.38;2.45;;;14.90;99.90;;;;;;4182565;28;20628;-91
2022/06/09 01:09:30;;;;;;;19.83;3.03;;;14.80;99.90;;;;;;4165951;28;20180;-89
2022/06/09 01:11:31;;;;;;;19.88;2.80;;;14.80;99.90;;;;;;4166087;28;20226;-91
2022/06/09 01:13:33;;;;;;;16.38;2.67;;;14.80;99.90;;;;;;4165993;28;20665;-90
2022/06/09 01:16:08;;;;;;;20.63;3.33;;;14.80;99.90;;;;;;4165972;28;20219;-90
2022/06/09 01:18:53;;;;;;;19.50;2.42;;;14.90;99.90;;;;;;4165794;28;20214;-90
2022/06/09 01:21:12;;;;;;;19.65;2.80;;;14.80;99.90;;;;;;4165316;28;20271;-91
2022/06/09 01:23:40;;;;;;;21.25;2.97;;;14.80;99.90;;;;;;4165614;28;20187;-90
2022/06/09 01:26:07;;;;;;;17.85;2.33;;;14.70;99.90;;;;;;4165644;28;20291;-91
2022/06/09 01:28:34;;;;;;;26.75;3.50;;;14.60;99.90;;;;;;4165017;28;20262;-90
2022/06/09 01:30:46;;;;;;;28.63;2.70;;;14.60;99.90;;;;;;4165432;28;20184;-90
2022/06/09 01:32:53;;;;;;;15.00;1.95;;;14.60;99.90;;;;;;4165743;28;20615;-91
2022/06/09 01:35:03;;;;;;;18.50;2.53;;;14.60;99.90;;;;;;4165676;28;20176;-90
2022/06/09 01:37:07;;;;;;;27.33;3.00;;;14.60;99.90;;;;;;4165778;28;20184;-90
2022/06/09 01:39:08;;;;;;;23.73;2.78;;;14.50;99.90;;;;;;4165436;28;20199;-90
2022/06/09 01:41:09;;;;;;;21.15;3.30;;;14.50;99.90;;;;;;4182268;28;20179;-90
2022/06/09 01:43:11;;;;;;;19.48;2.63;;;14.50;99.90;;;;;;4165678;28;20214;-90
2022/06/09 01:45:21;;;;;;;23.52;2.97;;;14.50;99.90;;;;;;4165663;28;20196;-90
2022/06/09 01:47:27;;;;;;;20.48;2.70;;;14.50;99.90;;;;;;4165591;28;20176;-90
2022/06/09 01:49:29;;;;;;;20.83;3.05;;;14.40;99.90;;;;;;4198759;28;20289;-91
2022/06/09 01:51:34;;;;;;;19.45;2.58;;;14.50;99.90;;;;;;4165603;28;20238;-92
2022/06/09 01:53:41;;;;;;;22.40;2.47;;;14.40;99.90;;;;;;4164983;28;20176;-91
2022/06/09 01:55:55;;;;;;;20.77;2.90;;;14.40;99.90;;;;;;4165330;28;20173;-90
2022/06/09 01:57:59;;;;;;;21.70;3.17;;;14.40;99.90;;;;;;4165319;28;20196;-92
2022/06/09 02:00:12;;;;;;;13.45;2.17;;;14.30;99.90;;;;;;4165248;28;20703;-91
2022/06/09 02:02:16;;;;;;;20.55;2.80;;;14.30;99.90;;;;;;4182293;28;20167;-90
2022/06/09 02:04:24;;;;;;;16.65;3.13;;;14.20;99.90;;;;;;4165262;28;20212;-93
2022/06/09 02:06:27;;;;;;;16.98;2.95;;;14.20;99.90;;;;;;4181564;28;20277;-91
2022/06/09 02:08:32;;;;;;;16.42;2.67;;;14.20;99.90;;;;;;4165046;28;20187;-91
2022/06/09 02:10:34;;;;;;;18.83;2.70;;;14.10;99.90;;;;;;4165022;28;20176;-91
2022/06/09 02:12:36;;;;;;;15.05;2.70;;;14.10;99.90;;;;;;4165254;28;20218;-90
2022/06/09 02:14:39;;;;;;;20.40;3.17;;;14.10;99.90;;;;;;4181524;28;20647;-90
2022/06/09 02:16:39;;;;;;;18.52;2.67;;;14.10;99.90;;;;;;4165096;28;20168;-90
2022/06/09 02:18:46;;;;;;;22.73;3.03;;;14.10;99.90;;;;;;4181425;28;20195;-90
2022/06/09 02:20:54;;;;;;;20.55;2.40;;;14.00;99.90;;;;;;4164862;28;20183;-90
2022/06/09 02:22:55;;;;;;;14.50;2.30;;;14.00;99.90;;;;;;4181610;28;20189;-90
2022/06/09 02:24:55;;;;;;;17.17;2.67;;;14.00;99.90;;;;;;4164781;28;20704;-92
2022/06/09 02:26:56;;;;;;;18.13;3.42;;;14.00;99.90;;;;;;4165171;28;20240;-90
2022/06/09 02:28:57;;;;;;;17.25;2.83;;;14.00;99.90;;;;;;4164701;28;20227;-91
2022/06/09 02:30:58;;;;;;;22.40;3.58;;;14.00;99.90;;;;;;4164996;28;20172;-90
2022/06/09 02:32:58;;;;;;;13.55;2.35;;;14.00;99.90;;;;;;4164637;28;20223;-91
2022/06/09 02:34:59;;;;;;;23.85;3.45;;;14.00;99.90;;;;;;4164605;28;20177;-90
2022/06/09 02:37:00;;;;;;;22.35;2.88;;;14.00;99.90;;;;;;4165094;28;20723;-90
2022/06/09 02:39:02;;;;;;;16.52;2.25;;;14.00;99.90;;;;;;4164947;28;20180;-91
2022/06/09 02:41:02;;;;;;;23.58;2.88;;;14.00;99.90;;;;;;4164920;28;20242;-90
2022/06/09 02:43:03;;;;;;;17.45;2.85;;;14.00;99.90;;;;;;4180670;28;20711;-90
2022/06/09 02:45:05;;;;;;;25.27;2.65;;;14.00;99.90;;;;;;4181201;28;20213;-90
2022/06/09 02:47:05;;;;;;;24.95;2.70;;;14.00;99.90;;;;;;4164808;28;20255;-91
2022/06/09 02:49:06;;;;;;;22.52;2.60;;;14.00;99.90;;;;;;4181101;28;20194;-90
2022/06/09 02:51:34;;;;;;;28.25;2.92;;;13.90;99.90;;;;;;4164707;28;20234;-92
2022/06/09 02:53:34;;;;;;;14.23;2.17;;;13.90;99.90;;;;;;4162048;28;20215;-92
2022/06/09 02:55:36;;;;;;;20.00;2.78;;;13.90;99.90;;;;;;4164688;28;20183;-91
2022/06/09 02:57:37;;;;;;;19.95;2.53;;;14.00;99.90;;;;;;4181173;28;20241;-90
2022/06/09 02:59:38;;;;;;;24.73;3.22;;;14.00;99.90;;;;;;4164538;28;20172;-91
2022/06/09 03:01:39;;;;;;;14.95;2.47;;;14.00;99.90;;;;;;4180991;28;20175;-91
2022/06/09 03:03:40;;;;;;;24.40;3.05;;;14.00;99.90;;;;;;4164615;28;20164;-90
2022/06/09 03:05:41;;;;;;;19.75;2.78;;;14.00;99.90;;;;;;4180776;28;20294;-91
2022/06/09 03:07:42;;;;;;;31.25;3.58;;;14.10;99.90;;;;;;4164390;28;20192;-90
2022/06/09 03:09:42;;;;;;;16.52;2.83;;;14.10;99.90;;;;;;4180977;28;20600;-90
2022/06/09 03:11:43;;;;;;;26.92;3.00;;;14.00;99.90;;;;;;4165029;28;20658;-90
2022/06/09 03:13:44;;;;;;;25.50;3.35;;;14.00;99.90;;;;;;4180720;28;20176;-90
2022/06/09 03:15:47;;;;;;;18.23;2.72;;;14.00;99.90;;;;;;4164342;28;20756;-91
2022/06/09 03:17:48;;;;;;;19.17;2.85;;;14.10;99.90;;;;;;4164489;28;20259;-91
2022/06/09 03:19:49;;;;;;;19.02;2.53;;;14.20;99.90;;;;;;4181006;28;20624;-91
2022/06/09 03:21:49;;;;;;;28.60;3.35;;;14.10;99.90;;;;;;4164117;28;20226;-91
2022/06/09 03:23:51;;;;;;;23.10;3.05;;;14.20;99.90;;;;;;4164288;28;20544;-90
2022/06/09 03:25:52;;;;;;;21.55;2.97;;;14.20;99.90;;;;;;4164207;28;20295;-91
2022/06/09 03:27:53;;;;;;;20.60;2.80;;;14.20;99.90;;;;;;4164187;28;20196;-90
2022/06/09 03:29:54;;;;;;;21.17;3.38;;;14.10;99.90;;;;;;4164140;28;20545;-90
2022/06/09 03:31:54;;;;;;;25.15;2.97;;;14.20;99.90;;;;;;4181079;28;20647;-90
2022/06/09 03:33:55;;;;;;;23.15;3.13;;;14.30;99.90;;;;;;4164365;28;20231;-91
2022/06/09 03:35:56;;;;;;;14.82;2.50;;;14.30;99.90;;;;;;4180989;28;20168;-89
2022/06/09 03:37:56;;;;;;;20.10;3.38;;;14.20;99.90;;;;;;4164366;28;20230;-91
2022/06/09 03:39:57;;;;;;;13.68;2.80;;;14.20;99.90;;;;;;4180414;28;20159;-91
2022/06/09 03:41:58;;;;;;;18.88;3.05;;;14.30;99.90;;;;;;4164210;28;20682;-93
2022/06/09 03:43:58;;;;;;;21.25;3.50;;;14.20;99.90;;;;;;4180575;28;20270;-91
2022/06/09 03:45:59;;;;;;;15.52;2.55;;;14.30;99.90;;;;;;4164056;28;20672;-89
2022/06/09 03:48:00;;;;;;;21.73;3.28;;;14.20;99.90;;;;;;4180634;28;20219;-90
2022/06/09 03:50:02;;;;;;;19.27;2.80;;;14.20;99.90;;;;;;4164317;28;20238;-89
2022/06/09 03:52:03;;;;;;;23.85;3.40;;;14.20;99.90;;;;;;4164049;28;20200;-90
2022/06/09 03:54:03;;;;;;;16.25;3.20;;;14.20;99.90;;;;;;4165226;28;20229;-90
2022/06/09 03:56:04;;;;;;;17.08;2.33;;;14.30;99.90;;;;;;4183764;28;20207;-91
2022/06/09 03:58:05;;;;;;;20.15;2.70;;;14.30;99.90;;;;;;4167226;28;20614;-90
2022/06/09 04:00:09;;;;;;;25.98;3.30;;;14.30;99.90;;;;;;4183659;28;20182;-91
2022/06/09 04:02:11;;;;;;;19.02;2.92;;;14.30;99.90;;;;;;4150690;28;20263;-91
2022/06/09 04:04:11;;;;;;;17.00;2.67;;;14.40;99.90;;;;;;4166989;28;20172;-90
2022/06/09 04:06:17;;;;;;;18.00;3.45;;;14.40;99.90;;;;;;4166878;28;20592;-90
2022/06/09 04:08:18;;;;;;;19.45;2.75;;;14.30;99.90;;;;;;4167014;28;20203;-90
2022/06/09 04:10:23;;;;;;;23.23;2.97;;;14.40;99.90;;;;;;4183637;28;20649;-89
2022/06/09 04:12:24;;;;;;;20.33;3.05;;;14.40;99.90;;;;;;4166870;28;20172;-90
2022/06/09 04:14:25;;;;;;;22.20;3.47;;;14.30;99.90;;;;;;4183433;28;20272;-92
2022/06/09 04:16:30;;;;;;;20.88;3.25;;;14.50;99.90;;;;;;4166745;28;20263;-90
2022/06/09 04:18:30;;;;;;;16.38;2.80;;;14.50;99.90;;;;;;4166765;28;20196;-89
2022/06/09 04:20:31;;;;;;;20.33;3.53;;;14.60;99.90;;;;;;4183379;28;20182;-90
2022/06/09 04:22:33;;;;;;;24.00;3.10;;;14.70;99.90;;;;;;4166760;28;20164;-92
2022/06/09 04:24:34;;;;;;;25.50;3.70;;;14.70;99.90;;;;;;4166810;28;20223;-91
2022/06/09 04:26:38;;;;;;;17.15;3.08;;;14.80;99.90;;;;;;4166871;28;20274;-91
2022/06/09 04:28:38;;;;;;;26.77;3.55;;;14.90;99.90;;;;;;4166771;28;20188;-91
2022/06/09 04:30:39;;;;;;;20.67;3.22;;;14.90;99.90;;;;;;4183365;28;20267;-91
2022/06/09 04:32:40;;;;;;;18.98;2.97;;;15.00;99.90;;;;;;4166901;28;20231;-93
2022/06/09 04:34:42;;;;;;;20.13;2.97;;;15.10;99.90;;;;;;4183145;28;20210;-91
2022/06/09 04:36:43;;;;;;;25.20;2.55;;;15.10;99.90;;;;;;4166684;28;20195;-91
2022/06/09 04:38:44;;;;;;;19.02;2.67;;;15.10;99.90;;;;;;4166543;28;20219;-91
2022/06/09 04:40:45;;;;;;;28.02;3.75;;;15.10;99.90;;;;;;4166709;28;20176;-91
2022/06/09 04:42:45;;;;;;;29.92;3.35;;;15.10;99.90;;;;;;4182792;28;20262;-91
2022/06/09 04:44:46;;;;;;;17.85;2.85;;;15.20;99.90;;;;;;4182906;28;20196;-92
2022/06/09 04:46:47;;;;;;;16.58;2.70;;;15.20;99.90;;;;;;4166639;28;20176;-91
2022/06/09 04:48:48;;;;;;;25.13;3.00;;;15.30;99.90;;;;;;4183130;28;20289;-90
2022/06/09 04:50:49;;;;;;;21.35;2.85;;;15.30;99.90;;;;;;4166457;28;20172;-89
2022/06/09 04:52:50;;;;;;;20.25;2.95;;;15.30;99.90;;;;;;4166433;28;20176;-92
2022/06/09 04:54:50;;;;;;;24.42;3.10;;;15.40;99.90;;;;;;4183008;28;20298;-90
2022/06/09 04:56:51;;;;;;;19.83;3.10;;;15.40;99.90;;;;;;4182904;28;20171;-90
2022/06/09 04:58:52;;;;;;;23.90;3.42;;;15.40;99.90;;;;;;4166122;28;20196;-91
2022/06/09 05:00:53;;;;;;;22.63;2.67;;;15.40;99.90;;;;;;4182640;28;20680;-91
2022/06/09 05:02:55;;;;;;;19.42;3.17;;;15.40;99.90;;;;;;4166188;28;20171;-90
2022/06/09 05:04:56;;;;;;;20.45;3.13;;;15.30;99.90;;;;;;4166009;28;20212;-89
2022/06/09 05:06:57;;;;;;;21.50;2.88;;;15.40;99.90;;;;;;4182118;28;20180;-89
2022/06/09 05:08:58;;;;;;;18.55;2.63;;;15.40;99.90;;;;;;4165860;28;20231;-90
2022/06/09 05:10:58;;;;;;;17.13;2.35;;;15.40;99.90;;;;;;4182365;28;20171;-89
2022/06/09 05:13:01;;;;;;;16.45;2.97;;;15.50;99.90;;;;;;4182502;28;20620;-89
2022/06/09 05:15:03;;;;;;;17.67;3.55;;;15.70;99.90;;;;;;4165773;28;20168;-91
2022/06/09 05:17:05;;;;;;;22.48;2.80;;;15.80;99.90;;;;;;4182317;28;20259;-89
2022/06/09 05:19:05;;;;;;;21.70;3.00;;;15.70;99.90;;;;;;4165820;28;20267;-90
2022/06/09 05:21:07;;;;;;;16.15;2.85;;;15.70;99.90;;;;;;4165816;28;20168;-89
2022/06/09 05:23:08;;;;;;;15.68;2.85;;;15.80;99.90;;;;;;4165778;28;20212;-90
2022/06/09 05:25:10;;;;;;;23.48;3.45;;;15.90;99.90;;;;;;4182356;28;20215;-90
2022/06/09 05:27:11;;;;;;;15.88;2.45;;;15.80;99.90;;;;;;4165962;28;20164;-91
2022/06/09 05:29:13;;;;;;;21.60;3.20;;;15.80;99.90;;;;;;4165715;28;20203;-91
2022/06/09 05:31:14;;;;;;;20.75;2.50;;;15.80;99.90;;;;;;4182360;28;20180;-91
2022/06/09 05:33:14;;;;;;;18.65;2.22;;;15.70;99.90;;;;;;4165666;28;20169;-90
2022/06/09 05:35:16;;;;;;;15.77;2.58;;;15.70;99.90;;;;;;4165654;28;20184;-90
2022/06/09 05:37:18;;;;;;;19.10;2.67;;;15.60;99.90;;;;;;4182221;28;20274;-90
2022/06/09 05:46:16;;;;;;;19.00;2.88;;;15.80;99.90;;;;;;4181923;28;20222;-90
2022/06/09 05:48:18;;;;;;;16.05;2.25;;;15.70;99.90;;;;;;4165399;28;20188;-90
2022/06/09 05:50:19;;;;;;;19.33;2.50;;;15.90;99.90;;;;;;4165498;28;20180;-89
2022/06/09 05:52:23;;;;;;;16.13;2.97;;;15.90;99.90;;;;;;4181944;28;20190;-90
2022/06/09 05:54:24;;;;;;;14.70;2.38;;;16.00;99.90;;;;;;4165559;28;20603;-91
2022/06/09 05:56:25;;;;;;;19.80;2.97;;;16.10;99.90;;;;;;4165337;28;20214;-89
2022/06/09 05:58:26;;;;;;;18.40;2.40;;;16.20;99.90;;;;;;4165089;28;20196;-90
2022/06/09 06:00:26;;;;;;;21.45;2.72;;;16.20;99.90;;;;;;4164874;28;20191;-90
2022/06/09 06:02:27;;;;;;;18.58;2.55;;;16.40;99.90;;;;;;4181737;28;20521;-90
2022/06/09 06:04:28;;;;;;;15.30;2.65;;;16.40;99.90;;;;;;4165174;28;20168;-91
2022/06/09 06:06:34;;;;;;;18.20;2.88;;;16.50;99.90;;;;;;4165390;28;20195;-89
2022/06/09 06:08:35;;;;;;;16.30;3.15;;;16.50;99.90;;;;;;4181435;28;20296;-90
2022/06/09 06:10:36;;;;;;;17.85;2.67;;;16.60;99.90;;;;;;4164970;28;20176;-91
2022/06/09 06:12:36;;;;;;;20.40;3.28;;;16.70;99.90;;;;;;4181492;28;20221;-89
2022/06/09 06:14:37;;;;;;;15.18;2.35;;;16.60;99.90;;;;;;4164910;28;20187;-90
2022/06/09 06:16:39;;;;;;;13.70;2.60;;;16.70;99.90;;;;;;4164892;28;20176;-90
2022/06/09 06:18:39;;;;;;;13.60;2.13;;;16.70;99.90;;;;;;4180921;28;20268;-89
2022/06/09 06:20:40;;;;;;;14.65;2.20;;;16.90;99.90;;;;;;4165073;28;20161;-91
2022/06/09 06:22:41;;;;;;;14.27;2.38;;;17.10;99.90;;;;;;4164870;28;20180;-90
2022/06/09 06:24:41;;;;;;;16.95;2.80;;;17.10;99.90;;;;;;4164753;28;20179;-89
2022/06/09 06:26:43;;;;;;;21.33;2.42;;;17.20;99.90;;;;;;4164864;28;20208;-91
2022/06/09 06:28:44;;;;;;;12.23;2.25;;;17.30;99.90;;;;;;4181257;28;20195;-89
2022/06/09 06:30:44;;;;;;;12.25;2.33;;;17.20;99.90;;;;;;4164808;28;20168;-90
2022/06/09 06:32:48;;;;;;;18.77;2.53;;;17.30;99.90;;;;;;4164754;28;20180;-94
2022/06/09 06:34:48;;;;;;;16.98;2.20;;;17.50;99.90;;;;;;4181427;28;20662;-90
2022/06/09 06:36:49;;;;;;;13.70;2.45;;;17.80;99.90;;;;;;4165049;28;20181;-90
2022/06/09 06:38:50;;;;;;;17.90;3.05;;;18.10;99.90;;;;;;4181258;28;20195;-89
2022/06/09 06:40:51;;;;;;;19.92;3.33;;;18.40;99.90;;;;;;4164805;28;20219;-91
2022/06/09 06:42:53;;;;;;;18.13;2.78;;;18.60;99.90;;;;;;4164633;28;20172;-89
2022/06/09 06:44:53;;;;;;;14.07;2.50;;;18.70;99.90;;;;;;4181067;28;20203;-90
2022/06/09 06:46:54;;;;;;;18.27;2.95;;;18.70;99.90;;;;;;4180970;28;20202;-89
2022/06/09 06:48:55;;;;;;;19.08;2.58;;;18.40;99.90;;;;;;4164564;28;20231;-90
2022/06/09 06:50:56;;;;;;;16.38;2.17;;;18.50;99.90;;;;;;4164664;28;20270;-90
2022/06/09 06:52:57;;;;;;;17.42;2.42;;;18.70;99.90;;;;;;4164719;28;20176;-90
2022/06/09 06:54:58;;;;;;;11.68;2.17;;;19.00;99.90;;;;;;4164496;28;20172;-89
2022/06/09 06:56:59;;;;;;;20.40;3.13;;;18.80;99.90;;;;;;4164710;28;20183;-89
2022/06/09 06:59:01;;;;;;;22.48;2.50;;;18.90;99.90;;;;;;4164423;28;20683;-90
2022/06/09 07:01:03;;;;;;;13.32;2.47;;;19.00;99.90;;;;;;4164612;28;20176;-89
2022/06/09 07:03:05;;;;;;;18.20;2.78;;;19.00;99.90;;;;;;4164670;28;20545;-90
2022/06/09 07:05:08;;;;;;;16.58;2.45;;;19.20;99.90;;;;;;4164612;28;20219;-91
2022/06/09 07:07:08;;;;;;;16.83;2.85;;;19.20;99.90;;;;;;4164800;28;20179;-90
2022/06/09 07:09:09;;;;;;;17.20;2.72;;;19.30;99.90;;;;;;4180931;28;20214;-87
2022/06/09 07:11:10;;;;;;;14.80;2.40;;;19.50;99.90;;;;;;4181057;28;20176;-89
2022/06/09 07:13:12;;;;;;;15.35;2.42;;;19.50;99.90;;;;;;4181106;28;20659;-89
2022/06/09 07:15:14;;;;;;;15.43;2.60;;;19.70;99.90;;;;;;4164627;28;20228;-90
2022/06/09 07:17:15;;;;;;;16.83;3.10;;;19.80;99.90;;;;;;4164377;28;20187;-89
2022/06/09 07:19:16;;;;;;;25.10;3.55;;;19.60;99.90;;;;;;4180904;28;20164;-90
2022/06/09 07:21:17;;;;;;;12.35;2.60;;;19.80;99.90;;;;;;4164371;28;20176;-89
2022/06/09 07:23:18;;;;;;;18.48;3.20;;;19.80;99.90;;;;;;4181052;28;20172;-89
2022/06/09 07:25:21;;;;;;;16.55;2.80;;;20.00;99.90;;;;;;4164315;28;20222;-89
2022/06/09 07:27:22;;;;;;;15.93;2.80;;;20.20;99.90;;;;;;4180715;28;20230;-89
2022/06/09 07:29:25;;;;;;;15.15;3.35;;;20.50;99.90;;;;;;4182609;28;20171;-89
2022/06/09 07:31:25;;;;;;;15.85;2.88;;;21.50;99.90;;;;;;4167740;28;20230;-89
2022/06/09 07:33:29;;;;;;;17.13;3.00;;;22.60;99.90;;;;;;4167581;28;20265;-89
2022/06/09 07:35:33;;;;;;;17.70;2.80;;;23.60;99.90;;;;;;4184125;28;20666;-88
2022/06/09 07:37:34;;;;;;;14.38;2.30;;;24.30;99.90;;;;;;4183798;28;20186;-89
2022/06/09 07:39:35;;;;;;;10.93;2.25;;;24.30;99.90;;;;;;4167463;28;20372;-89
2022/06/09 07:41:37;;;;;;;19.70;2.78;;;23.40;99.90;;;;;;4167392;28;20230;-87
2022/06/09 07:43:38;;;;;;;13.98;2.60;;;22.00;99.90;;;;;;4167298;28;20273;-90
2022/06/09 07:45:40;;;;;;;12.00;2.30;;;21.20;99.90;;;;;;4183823;28;20306;-88
2022/06/09 07:47:41;;;;;;;16.42;2.83;;;20.60;99.90;;;;;;4183886;28;20269;-89
2022/06/09 07:49:42;;;;;;;20.08;3.75;;;20.10;99.90;;;;;;4167592;28;20168;-88
2022/06/09 07:51:43;;;;;;;16.55;2.72;;;19.90;99.90;;;;;;4167230;28;20572;-89
2022/06/09 07:53:44;;;;;;;12.27;2.55;;;19.70;99.90;;;;;;4167281;28;20184;-90
2022/06/09 07:55:46;;;;;;;17.50;3.03;;;19.70;99.90;;;;;;4167490;28;20177;-89
2022/06/09 07:57:48;;;;;;;16.25;3.38;;;19.70;99.90;;;;;;4167320;28;20200;-89
2022/06/09 07:59:49;;;;;;;11.75;2.20;;;20.00;99.90;;;;;;4183761;28;20175;-89
2022/06/09 08:01:49;;;;;;;12.77;2.90;;;20.80;99.90;;;;;;4167165;28;20161;-89
2022/06/09 08:03:50;;;;;;;17.50;3.10;;;22.00;99.90;;;;;;4167155;28;20187;-89
2022/06/09 08:05:52;;;;;;;16.27;2.50;;;22.80;99.90;;;;;;4167147;28;20278;-89
2022/06/09 08:07:53;;;;;;;17.10;2.30;;;23.30;99.90;;;;;;4167043;28;20187;-89
2022/06/09 08:09:54;;;;;;;9.90;2.05;;;23.30;99.90;;;;;;4166979;28;20286;-89
2022/06/09 08:11:54;;;;;;;17.08;2.80;;;23.40;99.90;;;;;;4166905;28;20161;-88
2022/06/09 08:13:56;;;;;;;11.73;2.35;;;23.40;99.90;;;;;;4166908;28;20184;-89
2022/06/09 08:15:56;;;;;;;14.90;2.45;;;23.50;99.90;;;;;;4166839;28;20544;-89
2022/06/09 08:17:58;;;;;;;11.82;2.28;;;24.10;99.90;;;;;;4183251;28;20191;-89
2022/06/09 08:19:59;;;;;;;13.93;2.65;;;24.20;99.90;;;;;;4167125;28;20178;-89
2022/06/09 08:22:00;;;;;;;10.95;2.20;;;24.10;99.90;;;;;;4183593;28;20171;-89
2022/06/09 08:24:01;;;;;;;9.55;2.40;;;23.40;99.90;;;;;;4166604;28;20264;-88
2022/06/09 08:26:03;;;;;;;13.18;2.25;;;23.40;99.90;;;;;;4166518;28;20212;-90
2022/06/09 08:28:05;;;;;;;13.02;2.25;;;23.40;99.90;;;;;;4166871;28;20694;-88
2022/06/09 08:30:08;;;;;;;11.18;2.85;;;23.30;99.90;;;;;;4166694;28;20176;-88
2022/06/09 08:32:08;;;;;;;13.60;2.75;;;23.60;99.90;;;;;;4183274;28;20172;-88
2022/06/09 08:34:11;;;;;;;10.40;2.10;;;23.50;99.90;;;;;;4183236;28;20187;-89
2022/06/09 08:36:13;;;;;;;9.73;2.03;;;24.30;99.90;;;;;;4183192;28;20206;-88
2022/06/09 08:38:14;;;;;;;10.20;2.10;;;25.00;99.90;;;;;;4166508;28;20188;-88
2022/06/09 08:40:21;;;;;;;10.48;2.28;;;25.00;99.90;;;;;;4166008;28;20187;-88
2022/06/09 08:42:37;;;;;;;13.82;2.40;;;24.80;99.90;;;;;;4166668;28;20238;-86
2022/06/09 08:44:58;;;;;;;11.43;2.30;;;24.00;99.90;;;;;;4166491;28;20180;-88
2022/06/09 08:47:22;;;;;;;12.63;2.33;;;23.30;99.90;;;;;;4166464;28;20246;-87
2022/06/09 08:49:35;;;;;;;11.95;2.20;;;22.80;99.90;;;;;;4166132;28;20172;-88
2022/06/09 08:51:42;;;;;;;12.35;2.10;;;22.60;99.90;;;;;;4182818;28;20627;-88
2022/06/09 08:53:52;;;;;;;9.00;1.75;;;22.20;99.90;;;;;;4166367;28;20233;-88
2022/06/09 08:56:08;;;;;;;11.68;1.60;;;21.90;99.90;;;;;;4182863;28;20250;-88
2022/06/09 08:58:18;;;;;;;5.63;1.33;;;21.50;99.90;;;;;;4182596;28;20192;-88
2022/06/09 09:00:24;;;;;;;10.15;1.38;;;21.30;99.90;;;;;;4165810;28;20206;-88
2022/06/09 09:02:36;;;;;;;9.93;1.35;;;21.00;99.90;;;;;;4166032;28;20183;-89
2022/06/09 09:04:43;;;;;;;7.07;1.20;;;20.80;99.90;;;;;;4165760;28;20176;-88
2022/06/09 09:06:56;;;;;;;5.28;1.20;;;20.60;99.90;;;;;;4182594;28;20213;-89
2022/06/09 09:09:14;;;;;;;9.13;1.45;;;21.00;99.90;;;;;;4182304;28;20286;-88
2022/06/09 09:11:50;;;;;;;7.70;1.58;;;22.10;99.90;;;;;;4183056;28;20502;-87
2022/06/09 09:13:59;;;;;;;4.55;1.23;;;22.70;99.90;;;;;;4166099;28;20179;-89
2022/06/09 09:16:07;;;;;;;5.43;1.20;;;24.30;99.90;;;;;;4182579;28;20171;-88
2022/06/09 09:18:30;;;;;;;10.50;1.75;;;25.00;99.90;;;;;;4165443;28;20184;-89
2022/06/09 09:21:11;;;;;;;6.57;1.73;;;25.30;99.90;;;;;;4182379;28;20221;-88
2022/06/09 09:23:19;;;;;;;6.80;1.73;;;25.90;99.90;;;;;;4150103;28;20719;-88
2022/06/09 09:25:55;;;;;;;9.38;1.50;;;26.60;99.90;;;;;;4165864;28;20258;-89
2022/06/09 09:28:10;;;;;;;6.57;1.58;;;27.80;99.90;;;;;;4177414;28;20207;-89
2022/06/09 09:30:20;;;;;;;10.38;2.70;;;27.60;99.90;;;;;;4165758;28;20187;-89
2022/06/09 09:32:35;;;;;;;6.63;1.80;;;27.30;99.90;;;;;;4165794;28;20192;-88
2022/06/09 09:34:42;;;;;;;6.75;1.70;;;27.00;99.90;;;;;;4182077;28;20183;-89
2022/06/09 09:36:48;;;;;;;11.60;2.00;;;27.00;99.90;;;;;;4182006;28;20176;-88
2022/06/09 09:39:12;;;;;;;6.95;1.70;;;27.20;99.90;;;;;;4182069;28;20188;-88
2022/06/09 09:41:34;;;;;;;10.35;2.40;;;27.00;99.90;;;;;;4165542;28;20280;-87
2022/06/09 09:43:41;;;;;;;12.98;2.60;;;26.60;99.90;;;;;;4165423;28;20184;-87
2022/06/09 09:45:48;;;;;;;11.68;2.65;;;26.10;99.90;;;;;;4181913;28;20580;-88
2022/06/09 09:47:57;;;;;;;9.90;2.42;;;25.60;99.90;;;;;;4165358;28;20603;-87
2022/06/09 09:50:05;;;;;;;13.98;2.33;;;24.40;99.90;;;;;;4165356;28;20643;-87
2022/06/09 09:52:39;;;;;;;9.30;2.08;;;23.50;99.90;;;;;;4165025;28;20174;-89
2022/06/09 09:54:45;;;;;;;11.60;1.90;;;22.60;99.90;;;;;;4165162;28;20229;-87
2022/06/09 09:56:46;;;;;;;10.15;2.35;;;22.50;99.90;;;;;;4181999;28;20249;-88
2022/06/09 09:58:47;;;;;;;11.45;2.42;;;23.40;99.90;;;;;;4181796;28;20195;-88
2022/06/09 10:01:24;;;;;;;18.45;2.35;;;24.10;99.90;;;;;;4181872;28;20229;-87
2022/06/09 10:08:41;;;;;;;18.98;2.90;;;25.40;99.90;;;;;;4181519;28;20199;-87
2022/06/09 10:10:42;;;;;;;9.73;2.35;;;24.90;99.90;;;;;;4182778;28;20632;-87
2022/06/09 10:12:44;;;;;;;12.88;1.95;;;24.50;99.90;;;;;;4181636;28;20262;-87
2022/06/09 10:14:52;;;;;;;6.90;1.88;;;24.20;99.90;;;;;;4164830;28;20182;-88
2022/06/09 10:16:55;;;;;;;13.15;2.50;;;24.10;99.90;;;;;;4181321;28;20179;-87
2022/06/09 10:19:02;;;;;;;10.70;2.40;;;23.70;99.90;;;;;;4164562;28;20275;-86
2022/06/09 10:21:10;;;;;;;8.65;2.17;;;24.00;99.90;;;;;;4164838;28;20258;-88
2022/06/09 10:23:15;;;;;;;7.80;2.10;;;23.90;99.90;;;;;;4181425;28;20179;-88
2022/06/09 10:25:30;;;;;;;15.55;2.63;;;24.00;99.90;;;;;;4164692;28;20208;-88
2022/06/09 10:27:38;;;;;;;17.52;2.53;;;24.00;99.90;;;;;;4182319;28;20172;-89
2022/06/09 10:30:03;;;;;;;16.33;2.90;;;24.00;99.90;;;;;;4164707;28;20682;-88
2022/06/09 10:32:03;;;;;;;12.05;2.50;;;24.10;99.90;;;;;;4181503;28;20172;-88
2022/06/09 10:34:13;;;;;;;11.75;2.47;;;23.90;99.90;;;;;;4164709;28;20191;-87
2022/06/09 10:36:43;;;;;;;12.63;2.28;;;23.70;99.90;;;;;;4181110;28;20190;-88
2022/06/09 10:38:48;;;;;;;11.48;2.40;;;23.80;99.90;;;;;;4131584;28;20208;-89
2022/06/09 10:40:55;;;;;;;15.73;2.60;;;24.10;99.90;;;;;;4164919;28;20169;-89
2022/06/09 10:42:57;;;;;;;12.70;2.40;;;24.10;99.90;;;;;;4181197;28;20178;-87
2022/06/09 10:45:18;;;;;;;10.13;2.20;;;23.50;99.90;;;;;;4164395;28;20201;-87
2022/06/09 10:55:18;;;;;;;12.73;2.15;;;23.00;99.90;;;;;;4180847;28;20176;-88
2022/06/09 10:57:39;;;;;;;10.57;2.83;;;23.50;99.90;;;;;;4180174;28;20186;-87
2022/06/09 10:59:54;;;;;;;10.45;2.92;;;23.80;99.90;;;;;;4181222;28;20187;-87
2022/06/09 11:01:55;;;;;;;8.70;2.10;;;23.90;99.90;;;;;;4180881;28;20179;-87